createdAt,value
2019-02-26T00:00:45.005Z,5.40
2019-02-26T00:01:46.057Z,5.43
2019-02-26T00:02:41.729Z,5.48
2019-02-26T00:03:41.681Z,5.36
2019-02-26T00:04:41.648Z,5.46
2019-02-26T00:05:41.637Z,5.42
2019-02-26T00:06:42.459Z,5.42
2019-02-26T00:07:41.617Z,5.46
2019-02-26T00:08:41.609Z,5.38
2019-02-26T00:09:41.597Z,5.28
2019-02-26T00:10:41.591Z,5.36
2019-02-26T00:11:41.581Z,5.25
2019-02-26T00:12:41.583Z,5.27
2019-02-26T00:13:41.556Z,5.22
2019-02-26T00:14:43.042Z,5.31
2019-02-26T00:15:43.278Z,5.28
2019-02-26T00:16:42.382Z,5.27
2019-02-26T00:17:45.291Z,5.30
2019-02-26T00:18:42.660Z,5.30
2019-02-26T00:19:41.496Z,5.28
2019-02-26T00:20:41.495Z,5.18
2019-02-26T00:21:43.101Z,5.15
2019-02-26T00:22:41.493Z,5.13
2019-02-26T00:23:42.027Z,5.10
2019-02-26T00:24:42.614Z,5.13
2019-02-26T00:25:41.449Z,5.07
2019-02-26T00:26:43.481Z,5.03
2019-02-26T00:27:41.401Z,5.06
2019-02-26T00:28:42.040Z,5.03
2019-02-26T00:29:41.370Z,5.09
2019-02-26T00:30:42.492Z,5.12
2019-02-26T00:31:43.228Z,5.07
2019-02-26T00:32:41.351Z,5.06
2019-02-26T00:33:41.389Z,5.09
2019-02-26T00:34:41.335Z,5.10
2019-02-26T00:35:42.065Z,5.03
2019-02-26T00:36:41.341Z,4.99
2019-02-26T00:37:41.317Z,5.10
2019-02-26T00:38:42.673Z,5.07
2019-02-26T00:39:41.289Z,5.12
2019-02-26T00:40:43.132Z,5.22
2019-02-26T00:41:41.260Z,5.18
2019-02-26T00:42:41.246Z,5.24
2019-02-26T00:43:41.239Z,5.22
2019-02-26T00:44:41.251Z,5.18
2019-02-26T00:45:41.267Z,5.24
2019-02-26T00:46:41.195Z,5.22
2019-02-26T00:47:43.344Z,5.12
2019-02-26T00:48:43.022Z,5.15
2019-02-26T00:49:41.986Z,5.27
2019-02-26T00:50:41.183Z,5.20
2019-02-26T00:51:44.340Z,5.28
2019-02-26T00:52:41.128Z,5.21
2019-02-26T00:53:41.125Z,5.22
2019-02-26T00:54:41.112Z,5.20
2019-02-26T00:55:41.118Z,5.20
2019-02-26T00:56:41.181Z,5.25
2019-02-26T00:57:42.911Z,5.27
2019-02-26T00:58:42.214Z,5.22
2019-02-26T00:59:43.178Z,5.27
2019-02-26T01:00:41.061Z,5.25
2019-02-26T01:01:44.061Z,5.20
2019-02-26T01:02:42.010Z,5.33
2019-02-26T01:03:43.086Z,5.18
2019-02-26T01:04:41.490Z,5.25
2019-02-26T01:05:43.125Z,5.25
2019-02-26T01:06:40.992Z,5.33
2019-02-26T01:07:42.091Z,5.10
2019-02-26T01:08:43.093Z,5.17
2019-02-26T01:09:40.953Z,5.13
2019-02-26T01:10:41.596Z,5.20
2019-02-26T01:11:42.835Z,5.24
2019-02-26T01:12:42.492Z,5.28
2019-02-26T01:13:40.910Z,5.20
2019-02-26T01:14:41.388Z,5.30
2019-02-26T01:15:40.916Z,5.30
2019-02-26T01:16:42.082Z,5.27
2019-02-26T01:17:42.235Z,5.22
2019-02-26T01:18:42.163Z,5.27
2019-02-26T01:19:42.958Z,5.27
2019-02-26T01:20:40.845Z,5.28
2019-02-26T01:21:40.815Z,5.22
2019-02-26T01:22:42.856Z,5.13
2019-02-26T01:23:40.811Z,5.10
2019-02-26T01:24:40.791Z,5.17
2019-02-26T01:25:40.782Z,5.15
2019-02-26T01:26:42.815Z,5.12
2019-02-26T01:27:41.394Z,5.10
2019-02-26T01:28:44.131Z,5.04
2019-02-26T01:29:41.735Z,4.99
2019-02-26T01:30:40.726Z,5.02
2019-02-26T01:31:40.710Z,5.07
2019-02-26T01:32:40.729Z,5.03
2019-02-26T01:33:40.699Z,5.03
2019-02-26T01:34:42.561Z,5.04
2019-02-26T01:35:40.683Z,4.99
2019-02-26T01:36:42.536Z,5.03
2019-02-26T01:37:40.639Z,5.02
2019-02-26T01:38:41.750Z,5.02
2019-02-26T01:39:42.535Z,5.06
2019-02-26T01:40:43.604Z,5.13
2019-02-26T01:41:43.427Z,5.04
2019-02-26T01:42:40.584Z,5.09
2019-02-26T01:43:40.601Z,5.15
2019-02-26T01:44:42.214Z,5.17
2019-02-26T01:45:40.552Z,5.15
2019-02-26T01:46:41.171Z,5.10
2019-02-26T01:47:42.592Z,5.15
2019-02-26T01:48:41.275Z,5.12
2019-02-26T01:49:41.844Z,5.13
2019-02-26T01:50:40.735Z,5.07
2019-02-26T01:51:40.488Z,5.15
2019-02-26T01:52:40.483Z,5.07
2019-02-26T01:53:42.175Z,5.06
2019-02-26T01:54:40.474Z,5.06
2019-02-26T01:55:42.129Z,5.02
2019-02-26T01:56:40.452Z,4.96
2019-02-26T01:57:42.759Z,4.96
2019-02-26T01:58:40.432Z,4.91
2019-02-26T01:59:40.419Z,4.91
2019-02-26T02:00:40.823Z,4.88
2019-02-26T02:01:44.137Z,4.94
2019-02-26T02:02:40.382Z,4.85
2019-02-26T02:03:40.373Z,5.02
2019-02-26T02:04:41.273Z,5.15
2019-02-26T02:05:40.343Z,5.28
2019-02-26T02:06:41.334Z,5.61
2019-02-26T02:07:40.332Z,5.90
2019-02-26T02:08:43.387Z,6.19
2019-02-26T02:09:40.323Z,6.38
2019-02-26T02:10:40.304Z,6.52
2019-02-26T02:11:40.755Z,6.58
2019-02-26T02:12:41.493Z,6.58
2019-02-26T02:13:41.386Z,6.48
2019-02-26T02:14:40.261Z,6.34
2019-02-26T02:15:42.124Z,6.30
2019-02-26T02:16:40.235Z,6.17
2019-02-26T02:17:40.210Z,5.97
2019-02-26T02:18:43.649Z,5.89
2019-02-26T02:19:40.192Z,5.83
2019-02-26T02:20:40.200Z,5.89
2019-02-26T02:21:40.190Z,5.71
2019-02-26T02:22:42.087Z,5.61
2019-02-26T02:23:42.007Z,5.46
2019-02-26T02:24:41.827Z,5.35
2019-02-26T02:25:40.879Z,5.20
2019-02-26T02:26:41.104Z,5.17
2019-02-26T02:27:40.130Z,5.10
2019-02-26T02:28:40.108Z,5.17
2019-02-26T02:29:43.807Z,5.02
2019-02-26T02:30:40.093Z,4.97
2019-02-26T02:31:40.273Z,4.94
2019-02-26T02:32:40.095Z,4.88
2019-02-26T02:33:40.060Z,4.84
2019-02-26T02:34:42.934Z,4.75
2019-02-26T02:35:40.027Z,4.70
2019-02-26T02:36:40.010Z,4.72
2019-02-26T02:37:39.996Z,4.65
2019-02-26T02:38:39.997Z,4.67
2019-02-26T02:39:39.986Z,4.65
2019-02-26T02:40:40.835Z,4.62
2019-02-26T02:41:42.095Z,4.60
2019-02-26T02:42:42.550Z,4.59
2019-02-26T02:43:39.926Z,4.54
2019-02-26T02:44:42.202Z,4.51
2019-02-26T02:45:39.921Z,4.40
2019-02-26T02:46:42.474Z,4.44
2019-02-26T02:47:39.912Z,4.44
2019-02-26T02:48:39.896Z,4.42
2019-02-26T02:49:41.708Z,4.44
2019-02-26T02:50:39.865Z,4.41
2019-02-26T02:51:39.884Z,4.41
2019-02-26T02:52:39.885Z,4.44
2019-02-26T02:53:39.845Z,4.41
2019-02-26T02:54:41.228Z,4.30
2019-02-26T02:55:40.432Z,4.26
2019-02-26T02:56:41.883Z,4.29
2019-02-26T02:57:39.800Z,4.30
2019-02-26T02:58:41.680Z,4.32
2019-02-26T02:59:42.238Z,4.24
2019-02-26T03:00:39.749Z,4.27
2019-02-26T03:01:39.753Z,4.29
2019-02-26T03:02:42.775Z,4.16
2019-02-26T03:03:39.761Z,4.18
2019-02-26T03:04:39.712Z,4.30
2019-02-26T03:05:41.477Z,4.27
2019-02-26T03:06:39.708Z,4.27
2019-02-26T03:07:39.693Z,4.20
2019-02-26T03:08:42.104Z,4.16
2019-02-26T03:09:40.705Z,4.18
2019-02-26T03:10:42.333Z,4.18
2019-02-26T03:11:41.985Z,4.23
2019-02-26T03:12:39.622Z,4.20
2019-02-26T03:13:40.418Z,4.04
2019-02-26T03:14:41.859Z,4.15
2019-02-26T03:15:39.590Z,4.16
2019-02-26T03:16:42.467Z,4.04
2019-02-26T03:17:40.570Z,4.09
2019-02-26T03:18:39.557Z,4.04
2019-02-26T03:19:41.612Z,4.02
2019-02-26T03:20:40.410Z,4.02
2019-02-26T03:21:39.533Z,3.97
2019-02-26T03:22:42.177Z,3.96
2019-02-26T03:23:43.039Z,4.02
2019-02-26T03:24:39.502Z,3.96
2019-02-26T03:25:41.391Z,3.98
2019-02-26T03:26:39.489Z,3.96
2019-02-26T03:27:42.190Z,3.96
2019-02-26T03:28:39.964Z,3.93
2019-02-26T03:29:39.447Z,3.94
2019-02-26T03:30:43.921Z,3.88
2019-02-26T03:31:45.315Z,3.90
2019-02-26T03:32:44.806Z,3.91
2019-02-26T03:33:40.407Z,3.97
2019-02-26T03:34:39.432Z,3.90
2019-02-26T03:35:39.392Z,3.96
2019-02-26T03:36:40.810Z,4.04
2019-02-26T03:37:39.358Z,4.04
2019-02-26T03:38:40.882Z,4.05
2019-02-26T03:39:39.332Z,4.08
2019-02-26T03:40:39.339Z,4.20
2019-02-26T03:41:39.351Z,4.30
2019-02-26T03:42:41.605Z,4.34
2019-02-26T03:43:41.331Z,4.33
2019-02-26T03:44:39.283Z,4.52
2019-02-26T03:45:39.292Z,4.58
2019-02-26T03:46:39.266Z,4.72
2019-02-26T03:47:40.630Z,4.85
2019-02-26T03:48:39.243Z,4.89
2019-02-26T03:49:41.733Z,4.85
2019-02-26T03:50:39.219Z,4.80
2019-02-26T03:51:39.811Z,4.55
2019-02-26T03:52:39.212Z,4.41
2019-02-26T03:53:41.342Z,4.33
2019-02-26T03:54:40.219Z,4.22
2019-02-26T03:55:41.429Z,4.20
2019-02-26T03:56:39.174Z,4.05
2019-02-26T03:57:43.586Z,4.09
2019-02-26T03:58:40.129Z,4.04
2019-02-26T03:59:39.138Z,3.97
2019-02-26T04:00:41.687Z,3.96
2019-02-26T04:01:39.091Z,3.97
2019-02-26T04:02:42.244Z,3.97
2019-02-26T04:03:39.522Z,3.93
2019-02-26T04:04:39.072Z,4.00
2019-02-26T04:05:39.056Z,3.97
2019-02-26T04:06:41.095Z,3.93
2019-02-26T04:07:39.062Z,3.94
2019-02-26T04:08:39.022Z,3.96
2019-02-26T04:09:41.912Z,4.00
2019-02-26T04:10:40.004Z,3.97
2019-02-26T04:11:40.137Z,4.08
2019-02-26T04:12:42.337Z,4.02
2019-02-26T04:13:41.031Z,4.05
2019-02-26T04:14:38.962Z,4.06
2019-02-26T04:15:38.953Z,4.04
2019-02-26T04:16:41.105Z,4.12
2019-02-26T04:17:40.143Z,4.23
2019-02-26T04:18:38.936Z,4.18
2019-02-26T04:19:43.626Z,4.29
2019-02-26T04:20:43.441Z,4.27
2019-02-26T04:21:38.877Z,4.29
2019-02-26T04:22:42.311Z,4.33
2019-02-26T04:23:41.534Z,4.27
2019-02-26T04:24:38.850Z,4.20
2019-02-26T04:25:38.848Z,4.29
2019-02-26T04:26:38.815Z,4.24
2019-02-26T04:27:41.213Z,4.24
2019-02-26T04:28:40.188Z,4.29
2019-02-26T04:29:40.924Z,4.14
2019-02-26T04:30:39.373Z,4.23
2019-02-26T04:31:38.796Z,4.15
2019-02-26T04:32:40.895Z,4.16
2019-02-26T04:33:41.329Z,4.06
2019-02-26T04:34:38.746Z,4.12
2019-02-26T04:35:38.734Z,4.18
2019-02-26T04:36:40.282Z,4.18
2019-02-26T04:37:38.741Z,4.22
2019-02-26T04:38:38.707Z,4.12
2019-02-26T04:39:40.330Z,4.06
2019-02-26T04:40:40.848Z,4.06
2019-02-26T04:41:38.665Z,4.09
2019-02-26T04:42:40.941Z,4.11
2019-02-26T04:43:38.871Z,4.05
2019-02-26T04:44:38.637Z,4.11
2019-02-26T04:45:38.617Z,4.00
2019-02-26T04:46:39.478Z,4.05
2019-02-26T04:47:40.531Z,4.06
2019-02-26T04:48:38.605Z,3.98
2019-02-26T04:49:42.516Z,3.93
2019-02-26T04:50:39.429Z,4.04
2019-02-26T04:51:39.881Z,3.98
2019-02-26T04:52:41.221Z,3.98
2019-02-26T04:53:38.528Z,3.93
2019-02-26T04:54:39.503Z,3.94
2019-02-26T04:55:41.359Z,3.97
2019-02-26T04:56:40.135Z,3.94
2019-02-26T04:57:42.032Z,3.91
2019-02-26T04:58:41.879Z,3.96
2019-02-26T04:59:41.259Z,3.90
2019-02-26T05:00:39.466Z,4.00
2019-02-26T05:01:38.453Z,3.98
2019-02-26T05:02:38.454Z,3.97
2019-02-26T05:03:38.423Z,3.96
2019-02-26T05:04:40.020Z,3.98
2019-02-26T05:05:38.433Z,3.93
2019-02-26T05:06:38.394Z,3.97
2019-02-26T05:07:41.367Z,3.90
2019-02-26T05:08:40.329Z,3.90
2019-02-26T05:09:38.358Z,3.80
2019-02-26T05:10:38.378Z,3.83
2019-02-26T05:11:40.615Z,3.80
2019-02-26T05:12:40.164Z,3.79
2019-02-26T05:13:38.324Z,3.79
2019-02-26T05:14:38.299Z,3.79
2019-02-26T05:15:38.313Z,3.79
2019-02-26T05:16:40.393Z,3.72
2019-02-26T05:17:38.272Z,3.79
2019-02-26T05:18:38.279Z,3.73
2019-02-26T05:19:39.631Z,3.62
2019-02-26T05:20:42.089Z,3.62
2019-02-26T05:21:38.251Z,3.51
2019-02-26T05:22:38.215Z,3.42
2019-02-26T05:23:38.218Z,3.36
2019-02-26T05:24:41.400Z,3.42
2019-02-26T05:25:39.665Z,3.39
2019-02-26T05:26:38.178Z,3.31
2019-02-26T05:27:39.768Z,3.26
2019-02-26T05:28:40.868Z,3.26
2019-02-26T05:29:40.956Z,3.20
2019-02-26T05:30:40.259Z,3.18
2019-02-26T05:31:40.089Z,3.23
2019-02-26T05:32:38.114Z,3.18
2019-02-26T05:33:38.104Z,3.18
2019-02-26T05:34:39.832Z,3.31
2019-02-26T05:35:40.659Z,3.21
2019-02-26T05:36:42.017Z,3.23
2019-02-26T05:37:40.870Z,3.10
2019-02-26T05:38:38.062Z,3.15
2019-02-26T05:39:40.374Z,3.10
2019-02-26T05:40:40.384Z,3.06
2019-02-26T05:41:40.366Z,3.03
2019-02-26T05:42:38.013Z,3.06
2019-02-26T05:43:38.043Z,3.08
2019-02-26T05:44:37.983Z,3.10
2019-02-26T05:45:37.981Z,3.13
2019-02-26T05:46:37.953Z,3.11
2019-02-26T05:47:37.952Z,3.00
2019-02-26T05:48:39.988Z,2.95
2019-02-26T05:49:40.744Z,2.97
2019-02-26T05:50:38.454Z,3.03
2019-02-26T05:51:38.277Z,2.97
2019-02-26T05:52:37.923Z,2.90
2019-02-26T05:53:37.899Z,2.96
2019-02-26T05:54:37.885Z,2.89
2019-02-26T05:55:37.866Z,2.85
2019-02-26T05:56:40.765Z,2.89
2019-02-26T05:57:38.847Z,2.81
2019-02-26T05:58:39.440Z,2.87
2019-02-26T05:59:37.870Z,2.84
2019-02-26T06:00:37.812Z,2.81
2019-02-26T06:01:37.831Z,2.75
2019-02-26T06:02:40.122Z,2.78
2019-02-26T06:03:38.452Z,2.85
2019-02-26T06:04:40.781Z,2.84
2019-02-26T06:05:41.130Z,2.85
2019-02-26T06:06:38.743Z,2.82
2019-02-26T06:07:38.781Z,2.79
2019-02-26T06:08:39.251Z,2.69
2019-02-26T06:09:37.716Z,2.75
2019-02-26T06:10:37.719Z,2.69
2019-02-26T06:11:39.957Z,2.74
2019-02-26T06:12:40.382Z,2.61
2019-02-26T06:13:40.160Z,2.74
2019-02-26T06:14:39.389Z,2.71
2019-02-26T06:15:37.670Z,2.69
2019-02-26T06:16:37.659Z,2.66
2019-02-26T06:17:40.590Z,2.60
2019-02-26T06:18:41.170Z,2.61
2019-02-26T06:19:39.588Z,2.57
2019-02-26T06:20:37.615Z,2.54
2019-02-26T06:21:41.765Z,2.61
2019-02-26T06:22:38.584Z,2.52
2019-02-26T06:23:39.319Z,2.59
2019-02-26T06:24:38.130Z,2.60
2019-02-26T06:25:37.550Z,2.52
2019-02-26T06:26:38.102Z,2.57
2019-02-26T06:27:37.529Z,2.59
2019-02-26T06:28:40.193Z,2.57
2019-02-26T06:29:37.514Z,2.67
2019-02-26T06:30:37.517Z,2.74
2019-02-26T06:31:39.583Z,2.77
2019-02-26T06:32:39.688Z,2.71
2019-02-26T06:33:38.546Z,2.87
2019-02-26T06:34:37.461Z,3.05
2019-02-26T06:35:38.501Z,3.17
2019-02-26T06:36:37.457Z,3.50
2019-02-26T06:37:38.521Z,3.80
2019-02-26T06:38:37.401Z,4.20
2019-02-26T06:39:37.415Z,4.30
2019-02-26T06:40:39.345Z,4.73
2019-02-26T06:41:39.552Z,5.04
2019-02-26T06:42:38.135Z,5.33
2019-02-26T06:43:39.624Z,5.56
2019-02-26T06:44:38.829Z,5.78
2019-02-26T06:45:37.940Z,6.09
2019-02-26T06:46:38.329Z,6.34
2019-02-26T06:47:37.325Z,6.73
2019-02-26T06:48:37.299Z,7.02
2019-02-26T06:49:37.295Z,7.20
2019-02-26T06:50:38.762Z,7.34
2019-02-26T06:51:37.290Z,7.55
2019-02-26T06:52:39.765Z,7.85
2019-02-26T06:53:37.252Z,8.04
2019-02-26T06:54:37.246Z,8.26
2019-02-26T06:55:37.228Z,8.50
2019-02-26T06:56:41.427Z,8.71
2019-02-26T06:57:38.820Z,8.83
2019-02-26T06:58:38.169Z,9.17
2019-02-26T06:59:37.207Z,9.29
2019-02-26T07:00:37.178Z,9.21
2019-02-26T07:01:37.955Z,9.13
2019-02-26T07:02:37.153Z,8.99
2019-02-26T07:03:40.305Z,8.79
2019-02-26T07:04:37.129Z,8.36
2019-02-26T07:05:37.118Z,7.74
2019-02-26T07:06:38.045Z,7.23
2019-02-26T07:07:37.141Z,7.20
2019-02-26T07:08:37.091Z,7.52
2019-02-26T07:09:39.081Z,8.07
2019-02-26T07:10:37.061Z,8.74
2019-02-26T07:11:37.908Z,8.95
2019-02-26T07:12:38.756Z,9.28
2019-02-26T07:13:39.186Z,9.60
2019-02-26T07:14:37.036Z,9.86
2019-02-26T07:15:37.000Z,9.93
2019-02-26T07:16:39.804Z,9.81
2019-02-26T07:17:38.521Z,9.47
2019-02-26T07:18:36.988Z,9.36
2019-02-26T07:19:38.107Z,9.33
2019-02-26T07:20:39.895Z,9.54
2019-02-26T07:21:40.024Z,9.51
2019-02-26T07:22:36.925Z,9.60
2019-02-26T07:23:38.175Z,9.83
2019-02-26T07:24:38.535Z,10.11
2019-02-26T07:25:39.043Z,10.48
2019-02-26T07:26:38.629Z,10.64
2019-02-26T07:27:38.430Z,10.70
2019-02-26T07:28:36.862Z,10.56
2019-02-26T07:29:40.039Z,10.18
2019-02-26T07:30:39.771Z,9.94
2019-02-26T07:31:36.836Z,9.47
2019-02-26T07:32:38.356Z,9.58
2019-02-26T07:33:37.813Z,9.79
2019-02-26T07:34:36.821Z,9.71
2019-02-26T07:35:37.391Z,9.86
2019-02-26T07:36:36.772Z,9.79
2019-02-26T07:37:38.096Z,9.87
2019-02-26T07:38:41.125Z,10.05
2019-02-26T07:39:36.734Z,10.09
2019-02-26T07:40:38.481Z,10.04
2019-02-26T07:41:36.718Z,9.96
2019-02-26T07:42:37.393Z,9.93
2019-02-26T07:43:40.770Z,9.71
2019-02-26T07:44:36.716Z,9.71
2019-02-26T07:45:36.676Z,9.60
2019-02-26T07:46:38.507Z,9.48
2019-02-26T07:47:36.659Z,9.53
2019-02-26T07:48:36.649Z,9.46
2019-02-26T07:49:36.633Z,9.47
2019-02-26T07:50:39.682Z,9.42
2019-02-26T07:51:38.570Z,9.51
2019-02-26T07:52:36.606Z,9.58
2019-02-26T07:53:36.593Z,9.56
2019-02-26T07:54:37.763Z,9.36
2019-02-26T07:55:38.331Z,9.42
2019-02-26T07:56:36.568Z,9.35
2019-02-26T07:57:36.554Z,9.35
2019-02-26T07:58:38.473Z,9.38
2019-02-26T07:59:36.944Z,9.54
2019-02-26T08:00:37.738Z,9.58
2019-02-26T08:01:37.589Z,9.65
2019-02-26T08:02:37.278Z,9.94
2019-02-26T08:03:36.487Z,10.25
2019-02-26T08:04:38.759Z,10.07
2019-02-26T08:05:36.473Z,9.94
2019-02-26T08:06:38.373Z,10.01
2019-02-26T08:07:36.430Z,10.11
2019-02-26T08:08:37.526Z,10.11
2019-02-26T08:09:36.429Z,10.20
2019-02-26T08:10:39.360Z,10.32
2019-02-26T08:11:38.707Z,10.45
2019-02-26T08:12:38.061Z,10.41
2019-02-26T08:13:36.625Z,10.51
2019-02-26T08:14:37.959Z,10.61
2019-02-26T08:15:37.557Z,10.68
2019-02-26T08:16:36.341Z,10.78
2019-02-26T08:17:36.334Z,10.91
2019-02-26T08:18:36.326Z,11.04
2019-02-26T08:19:37.435Z,11.25
2019-02-26T08:20:37.705Z,11.43
2019-02-26T08:21:36.281Z,11.67
2019-02-26T08:22:36.357Z,11.90
2019-02-26T08:23:36.265Z,11.98
2019-02-26T08:24:36.253Z,12.21
2019-02-26T08:25:36.239Z,12.24
2019-02-26T08:26:38.114Z,12.41
2019-02-26T08:27:37.886Z,12.38
2019-02-26T08:28:38.463Z,12.38
2019-02-26T08:29:36.332Z,12.39
2019-02-26T08:30:40.176Z,12.68
2019-02-26T08:31:37.187Z,12.89
2019-02-26T08:32:36.172Z,12.95
2019-02-26T08:33:36.161Z,12.97
2019-02-26T08:34:39.189Z,13.39
2019-02-26T08:35:36.144Z,13.33
2019-02-26T08:36:36.145Z,13.44
2019-02-26T08:37:36.119Z,13.46
2019-02-26T08:38:36.108Z,13.33
2019-02-26T08:39:37.891Z,13.25
2019-02-26T08:40:36.090Z,13.44
2019-02-26T08:41:36.094Z,13.71
2019-02-26T08:42:36.067Z,13.91
2019-02-26T08:43:36.060Z,13.85
2019-02-26T08:44:36.040Z,14.22
2019-02-26T08:45:36.030Z,14.35
2019-02-26T08:46:37.866Z,14.35
2019-02-26T08:47:36.006Z,13.77
2019-02-26T08:48:36.002Z,13.59
2019-02-26T08:49:37.836Z,13.82
2019-02-26T08:50:36.807Z,14.28
2019-02-26T08:51:35.979Z,14.86
2019-02-26T08:52:35.955Z,15.28
2019-02-26T08:53:35.937Z,15.56
2019-02-26T08:54:35.978Z,15.65
2019-02-26T08:55:35.924Z,14.89
2019-02-26T08:56:36.901Z,14.80
2019-02-26T08:57:35.912Z,14.37
2019-02-26T08:58:35.881Z,14.12
2019-02-26T08:59:35.898Z,13.85
2019-02-26T09:00:35.867Z,13.44
2019-02-26T09:01:35.856Z,13.36
2019-02-26T09:02:35.861Z,13.25
2019-02-26T09:03:40.622Z,13.20
2019-02-26T09:04:38.321Z,13.22
2019-02-26T09:05:36.815Z,13.12
2019-02-26T09:06:35.795Z,12.97
2019-02-26T09:07:37.546Z,13.03
2019-02-26T09:08:37.989Z,13.19
2019-02-26T09:09:35.775Z,13.42
2019-02-26T09:10:36.408Z,13.23
2019-02-26T09:11:36.987Z,13.38
2019-02-26T09:12:35.730Z,13.45
2019-02-26T09:13:37.043Z,12.93
2019-02-26T09:14:37.635Z,13.00
2019-02-26T09:15:36.637Z,13.30
2019-02-26T09:16:35.700Z,13.52
2019-02-26T09:17:37.366Z,13.32
2019-02-26T09:18:38.154Z,12.78
2019-02-26T09:19:37.848Z,12.85
2019-02-26T09:20:35.677Z,12.85
2019-02-26T09:21:36.947Z,12.89
2019-02-26T09:22:35.631Z,12.89
2019-02-26T09:23:35.618Z,12.78
2019-02-26T09:24:35.605Z,12.83
2019-02-26T09:25:35.595Z,12.75
2019-02-26T09:26:35.626Z,12.97
2019-02-26T09:27:42.574Z,13.28
2019-02-26T09:28:36.572Z,13.52
2019-02-26T09:29:36.645Z,13.57
2019-02-26T09:30:36.471Z,13.70
2019-02-26T09:31:35.539Z,13.59
2019-02-26T09:32:37.403Z,13.22
2019-02-26T09:33:38.097Z,13.11
2019-02-26T09:34:37.829Z,13.00
2019-02-26T09:35:35.483Z,12.87
2019-02-26T09:36:35.470Z,12.93
2019-02-26T09:37:35.474Z,13.20
2019-02-26T09:38:35.447Z,13.45
2019-02-26T09:39:36.513Z,13.51
2019-02-26T09:40:35.710Z,13.36
2019-02-26T09:41:37.420Z,13.01
2019-02-26T09:42:35.414Z,13.10
2019-02-26T09:43:36.284Z,13.25
2019-02-26T09:44:35.958Z,13.39
2019-02-26T09:45:35.401Z,13.44
2019-02-26T09:46:36.343Z,13.57
2019-02-26T09:47:35.367Z,13.57
2019-02-26T09:48:35.840Z,13.66
2019-02-26T09:49:35.841Z,13.79
2019-02-26T09:50:36.708Z,13.71
2019-02-26T09:51:37.360Z,13.79
2019-02-26T09:52:35.311Z,13.81
2019-02-26T09:53:35.289Z,13.84
2019-02-26T09:54:40.315Z,13.82
2019-02-26T09:55:36.266Z,13.77
2019-02-26T09:56:35.253Z,13.82
2019-02-26T09:57:35.243Z,13.96
2019-02-26T09:58:37.351Z,13.96
2019-02-26T09:59:35.966Z,14.10
2019-02-26T10:00:35.222Z,14.27
2019-02-26T10:01:35.894Z,14.35
2019-02-26T10:02:35.207Z,14.47
2019-02-26T10:03:38.552Z,14.33
2019-02-26T10:04:35.188Z,14.29
2019-02-26T10:05:35.174Z,14.06
2019-02-26T10:06:37.371Z,13.79
2019-02-26T10:07:36.230Z,14.06
2019-02-26T10:08:35.120Z,14.17
2019-02-26T10:09:37.407Z,14.37
2019-02-26T10:10:37.531Z,14.58
2019-02-26T10:11:35.102Z,14.69
2019-02-26T10:12:36.949Z,14.88
2019-02-26T10:13:35.066Z,15.09
2019-02-26T10:14:35.853Z,15.03
2019-02-26T10:15:37.332Z,15.14
2019-02-26T10:16:35.026Z,15.25
2019-02-26T10:17:37.098Z,15.27
2019-02-26T10:18:35.006Z,15.19
2019-02-26T10:19:35.656Z,15.32
2019-02-26T10:20:35.533Z,15.21
2019-02-26T10:21:37.301Z,15.20
2019-02-26T10:22:36.162Z,15.14
2019-02-26T10:23:34.965Z,15.09
2019-02-26T10:24:37.217Z,15.14
2019-02-26T10:25:38.547Z,15.11
2019-02-26T10:26:36.662Z,15.06
2019-02-26T10:27:36.175Z,15.07
2019-02-26T10:28:37.309Z,15.11
2019-02-26T10:29:36.884Z,15.19
2019-02-26T10:30:36.991Z,15.27
2019-02-26T10:31:34.856Z,15.46
2019-02-26T10:32:34.858Z,15.28
2019-02-26T10:33:37.944Z,15.44
2019-02-26T10:34:34.831Z,15.49
2019-02-26T10:35:36.237Z,15.44
2019-02-26T10:36:39.020Z,15.27
2019-02-26T10:37:38.251Z,15.27
2019-02-26T10:38:36.518Z,15.29
2019-02-26T10:39:34.807Z,15.38
2019-02-26T10:40:47.184Z,15.57
2019-02-26T10:41:36.951Z,15.60
2019-02-26T10:42:39.845Z,15.75
2019-02-26T10:43:35.740Z,15.78
2019-02-26T10:44:34.739Z,15.80
2019-02-26T10:45:38.565Z,15.89
2019-02-26T10:46:37.078Z,15.96
2019-02-26T10:47:34.826Z,15.96
2019-02-26T10:48:34.665Z,16.15
2019-02-26T10:49:34.670Z,16.33
2019-02-26T10:50:36.702Z,16.35
2019-02-26T10:51:34.660Z,16.49
2019-02-26T10:52:34.634Z,16.49
2019-02-26T10:53:34.629Z,16.64
2019-02-26T10:54:39.541Z,16.70
2019-02-26T10:55:39.279Z,16.70
2019-02-26T10:56:39.198Z,16.76
2019-02-26T10:57:36.236Z,16.70
2019-02-26T10:58:34.570Z,16.57
2019-02-26T10:59:34.563Z,16.60
2019-02-26T11:00:37.624Z,16.56
2019-02-26T11:01:35.433Z,16.61
2019-02-26T11:02:34.539Z,16.68
2019-02-26T11:03:37.955Z,16.71
2019-02-26T11:04:38.103Z,16.85
2019-02-26T11:05:37.212Z,16.85
2019-02-26T11:06:38.289Z,16.75
2019-02-26T11:07:35.609Z,16.81
2019-02-26T11:08:35.109Z,16.82
2019-02-26T11:09:34.461Z,16.89
2019-02-26T11:10:34.439Z,16.70
2019-02-26T11:11:35.650Z,16.63
2019-02-26T11:12:34.417Z,16.64
2019-02-26T11:13:34.415Z,16.83
2019-02-26T11:14:36.236Z,16.96
2019-02-26T11:15:36.030Z,16.89
2019-02-26T11:16:35.831Z,16.79
2019-02-26T11:17:34.372Z,16.73
2019-02-26T11:18:35.180Z,16.75
2019-02-26T11:19:38.297Z,16.64
2019-02-26T11:20:34.706Z,16.68
2019-02-26T11:21:34.321Z,16.93
2019-02-26T11:22:34.321Z,17.04
2019-02-26T11:23:36.237Z,17.07
2019-02-26T11:24:36.160Z,16.96
2019-02-26T11:25:34.259Z,17.00
2019-02-26T11:26:35.942Z,17.12
2019-02-26T11:27:35.776Z,17.01
2019-02-26T11:28:37.869Z,17.06
2019-02-26T11:29:36.408Z,16.91
2019-02-26T11:30:34.213Z,16.89
2019-02-26T11:31:36.150Z,16.89
2019-02-26T11:32:37.899Z,16.85
2019-02-26T11:33:35.171Z,16.98
2019-02-26T11:34:36.275Z,16.94
2019-02-26T11:35:34.154Z,16.91
2019-02-26T11:36:36.540Z,16.98
2019-02-26T11:37:34.151Z,16.94
2019-02-26T11:38:35.308Z,16.98
2019-02-26T11:39:34.110Z,16.85
2019-02-26T11:40:34.100Z,16.67
2019-02-26T11:41:35.921Z,16.52
2019-02-26T11:42:34.085Z,16.52
2019-02-26T11:43:34.085Z,16.66
2019-02-26T11:44:34.059Z,16.68
2019-02-26T11:45:35.156Z,16.89
2019-02-26T11:46:34.422Z,16.89
2019-02-26T11:47:36.362Z,16.96
2019-02-26T11:48:34.045Z,17.03
2019-02-26T11:49:36.345Z,17.03
2019-02-26T11:50:33.987Z,17.01
2019-02-26T11:51:37.171Z,16.83
2019-02-26T11:52:36.500Z,16.73
2019-02-26T11:53:33.957Z,16.75
2019-02-26T11:54:35.054Z,16.73
2019-02-26T11:55:35.149Z,16.68
2019-02-26T11:56:33.914Z,16.63
2019-02-26T11:57:37.035Z,16.70
2019-02-26T11:58:33.907Z,16.76
2019-02-26T11:59:35.624Z,16.83
2019-02-26T12:00:36.509Z,16.93
2019-02-26T12:01:36.902Z,16.94
2019-02-26T12:02:36.154Z,16.82
2019-02-26T12:03:36.370Z,16.83
2019-02-26T12:04:33.826Z,16.83
2019-02-26T12:05:35.942Z,16.83
2019-02-26T12:06:33.809Z,16.91
2019-02-26T12:07:34.834Z,16.85
2019-02-26T12:08:33.802Z,16.94
2019-02-26T12:09:35.690Z,17.03
2019-02-26T12:10:37.184Z,17.01
2019-02-26T12:11:33.776Z,17.11
2019-02-26T12:12:36.170Z,17.12
2019-02-26T12:13:33.767Z,17.06
2019-02-26T12:14:34.712Z,17.04
2019-02-26T12:15:36.278Z,17.03
2019-02-26T12:16:33.708Z,17.16
2019-02-26T12:17:33.716Z,17.30
2019-02-26T12:18:34.309Z,17.22
2019-02-26T12:19:34.391Z,17.19
2019-02-26T12:20:35.564Z,17.36
2019-02-26T12:21:34.572Z,17.36
2019-02-26T12:22:33.654Z,17.30
2019-02-26T12:23:34.501Z,17.31
2019-02-26T12:24:35.551Z,17.37
2019-02-26T12:25:33.609Z,17.33
2019-02-26T12:26:33.601Z,17.34
2019-02-26T12:27:36.022Z,17.38
2019-02-26T12:28:37.173Z,17.51
2019-02-26T12:29:33.593Z,17.52
2019-02-26T12:30:35.019Z,17.51
2019-02-26T12:31:34.611Z,17.49
2019-02-26T12:32:33.554Z,17.46
2019-02-26T12:33:33.542Z,17.58
2019-02-26T12:34:35.180Z,17.55
2019-02-26T12:35:35.477Z,17.54
2019-02-26T12:36:35.374Z,17.49
2019-02-26T12:37:33.484Z,17.62
2019-02-26T12:38:36.619Z,17.64
2019-02-26T12:39:33.469Z,17.66
2019-02-26T12:40:33.453Z,17.72
2019-02-26T12:41:36.084Z,17.74
2019-02-26T12:42:33.415Z,17.72
2019-02-26T12:43:36.469Z,17.77
2019-02-26T12:44:37.425Z,17.72
2019-02-26T12:45:35.134Z,17.86
2019-02-26T12:46:33.849Z,17.79
2019-02-26T12:47:33.365Z,17.86
2019-02-26T12:48:35.188Z,17.92
2019-02-26T12:49:36.538Z,17.95
2019-02-26T12:50:36.641Z,18.00
2019-02-26T12:51:35.457Z,18.00
2019-02-26T12:52:33.313Z,18.08
2019-02-26T12:53:35.819Z,18.07
2019-02-26T12:54:37.024Z,18.12
2019-02-26T12:55:35.838Z,18.21
2019-02-26T12:56:36.791Z,18.29
2019-02-26T12:57:33.279Z,18.35
2019-02-26T12:58:33.240Z,18.35
2019-02-26T12:59:33.227Z,18.30
2019-02-26T13:00:34.981Z,18.26
2019-02-26T13:01:33.410Z,18.32
2019-02-26T13:02:33.194Z,18.35
2019-02-26T13:03:38.126Z,18.25
2019-02-26T13:04:34.178Z,18.29
2019-02-26T13:05:35.219Z,18.30
2019-02-26T13:06:34.390Z,18.35
2019-02-26T13:07:33.140Z,18.37
2019-02-26T13:08:33.134Z,18.33